createdAt,value
2023-04-04T00:00:40.623Z,100740.06
2023-04-04T00:03:43.563Z,100745.22
2023-04-04T00:06:47.753Z,100748.13
2023-04-04T00:09:50.327Z,100745.22
2023-04-04T00:12:52.906Z,100745.59
2023-04-04T00:15:55.893Z,100748.13
2023-04-04T00:18:58.044Z,100751.53
2023-04-04T00:22:00.777Z,100752.31
2023-04-04T00:25:03.335Z,100755.50
2023-04-04T00:28:06.493Z,100757.28
2023-04-04T00:31:09.464Z,100761.75
2023-04-04T00:34:12.368Z,100761.75
2023-04-04T00:37:14.611Z,100768.00
2023-04-04T00:40:18.157Z,100767.28
2023-04-04T00:43:20.524Z,100760.47
2023-04-04T00:46:25.094Z,100767.50
2023-04-04T00:49:27.569Z,100759.97
2023-04-04T00:52:30.214Z,100759.22
2023-04-04T00:55:32.595Z,100744.44
2023-04-04T00:58:35.524Z,100744.31
2023-04-04T01:01:37.934Z,100737.44
2023-04-04T01:04:40.704Z,100734.72
2023-04-04T01:07:43.176Z,100723.22
2023-04-04T01:10:46.536Z,100721.44
2023-04-04T01:13:48.869Z,100715.66
2023-04-04T01:16:52.538Z,100716.25
2023-04-04T01:20:23.148Z,100710.28
2023-04-04T01:23:39.940Z,100710.06
2023-04-04T01:26:42.225Z,100698.22
2023-04-04T01:29:45.449Z,100698.06
2023-04-04T01:32:54.390Z,100685.41
2023-04-04T01:36:32.641Z,100680.84
2023-04-04T01:39:43.469Z,100679.22
2023-04-04T01:42:49.218Z,100672.41
2023-04-04T01:45:52.538Z,100661.84
2023-04-04T01:48:55.271Z,100660.06
2023-04-04T01:51:58.033Z,100654.91
2023-04-04T01:55:02.587Z,100654.16
2023-04-04T01:58:05.540Z,100649.22
2023-04-04T02:01:08.225Z,100641.28
2023-04-04T02:04:14.505Z,100635.47
2023-04-04T02:07:16.844Z,100639.97
2023-04-04T02:10:20.356Z,100634.72
2023-04-04T02:13:22.586Z,100627.47
2023-04-04T02:16:26.723Z,100624.84
2023-04-04T02:19:29.036Z,100619.19
2023-04-04T02:22:31.655Z,100621.94
2023-04-04T02:25:34.167Z,100613.41
2023-04-04T02:28:36.725Z,100614.16
2023-04-04T02:31:39.090Z,100606.44
2023-04-04T02:34:43.447Z,100604.81
2023-04-04T02:37:47.267Z,100604.56
2023-04-04T02:40:53.469Z,100596.13
2023-04-04T02:43:56.257Z,100614.16
2023-04-04T02:46:58.926Z,100610.22
2023-04-04T02:50:03.768Z,100601.09
2023-04-04T02:53:07.086Z,100604.03
2023-04-04T02:56:09.563Z,100615.97
2023-04-04T02:59:12.500Z,100621.41
2023-04-04T03:02:15.216Z,100611.59
2023-04-04T03:05:17.840Z,100615.59
2023-04-04T03:08:20.242Z,100620.09
2023-04-04T03:11:23.573Z,100620.19
2023-04-04T03:14:26.897Z,100628.88
2023-04-04T03:17:30.339Z,100626.97
2023-04-04T03:20:33.060Z,100627.47
2023-04-04T03:23:35.631Z,100625.03
2023-04-04T03:26:37.964Z,100631.16
2023-04-04T03:29:40.604Z,100628.84
2023-04-04T03:32:43.645Z,100635.12
2023-04-04T03:35:46.794Z,100627.09
2023-04-04T03:38:49.435Z,100630.56
2023-04-04T03:41:51.906Z,100642.19
2023-04-04T03:44:55.035Z,100642.44
2023-04-04T03:48:00.578Z,100640.44
2023-04-04T03:51:04.968Z,100652.72
2023-04-04T03:54:07.666Z,100646.75
2023-04-04T03:57:10.002Z,100641.19
2023-04-04T04:00:13.644Z,100647.88
2023-04-04T04:03:17.085Z,100637.63
2023-04-04T04:06:21.603Z,100630.75
2023-04-04T04:09:23.848Z,100628.56
2023-04-04T04:12:26.467Z,100628.25
2023-04-04T04:15:28.720Z,100626.38
2023-04-04T04:18:32.747Z,100628.19
2023-04-04T04:21:35.428Z,100623.72
2023-04-04T04:24:37.825Z,100628.19
2023-04-04T04:27:41.045Z,100620.19
2023-04-04T04:30:44.411Z,100630.56
2023-04-04T04:33:48.607Z,100617.34
2023-04-04T04:36:53.851Z,100623.41
2023-04-04T04:39:57.254Z,100617.19
2023-04-04T04:43:01.389Z,100617.84
2023-04-04T04:46:03.725Z,100622.22
2023-04-04T04:49:07.969Z,100624.41
2023-04-04T04:52:10.252Z,100619.38
2023-04-04T04:55:15.864Z,100620.81
2023-04-04T04:58:22.455Z,100619.41
2023-04-04T05:01:25.730Z,100620.09
2023-04-04T05:04:28.761Z,100612.72
2023-04-04T05:07:32.227Z,100612.41
2023-04-04T05:10:34.920Z,100610.37
2023-04-04T05:13:37.558Z,100605.94
2023-04-04T05:16:40.768Z,100602.06
2023-04-04T05:19:43.444Z,100608.44
2023-04-04T05:22:50.310Z,100604.88
2023-04-04T05:25:55.539Z,100607.81
2023-04-04T05:28:59.430Z,100624.00
2023-04-04T05:32:02.758Z,100627.97
2023-04-04T05:35:05.727Z,100623.50
2023-04-04T05:38:08.707Z,100627.00
2023-04-04T05:41:11.198Z,100624.59
2023-04-04T05:44:13.788Z,100629.28
2023-04-04T05:47:16.011Z,100627.06
2023-04-04T05:50:19.048Z,100626.09
2023-04-04T05:53:23.498Z,100630.72
2023-04-04T05:56:26.179Z,100634.16
2023-04-04T05:59:28.917Z,100650.81
2023-04-04T06:02:32.153Z,100642.41
2023-04-04T06:05:37.455Z,100638.31
2023-04-04T06:08:52.968Z,100632.94
2023-04-04T06:11:56.334Z,100638.53
2023-04-04T06:14:58.560Z,100627.44
2023-04-04T06:18:01.310Z,100642.12
2023-04-04T06:21:04.103Z,100630.69
2023-04-04T06:24:06.887Z,100641.69
2023-04-04T06:27:09.321Z,100641.13
2023-04-04T06:30:14.493Z,100642.69
2023-04-04T06:33:17.062Z,100616.28
2023-04-04T06:36:21.169Z,100601.19
2023-04-04T06:39:23.489Z,100584.34
2023-04-04T06:42:28.462Z,100597.81
2023-04-04T06:45:33.454Z,100596.53
2023-04-04T06:48:36.010Z,100603.75
2023-04-04T06:51:40.764Z,100589.03
2023-04-04T06:54:43.934Z,100594.16
2023-04-04T06:57:46.438Z,100598.75
2023-04-04T07:00:49.828Z,100600.09
2023-04-04T07:03:56.435Z,100609.78
2023-04-04T07:06:59.726Z,100608.19
2023-04-04T07:10:02.434Z,100603.69
2023-04-04T07:13:04.958Z,100606.37
2023-04-04T07:16:07.178Z,100607.91
2023-04-04T07:19:09.738Z,100620.25
2023-04-04T07:22:13.261Z,100623.91
2023-04-04T07:25:16.177Z,100621.97
2023-04-04T07:28:18.795Z,100621.28
2023-04-04T07:31:21.802Z,100620.56
2023-04-04T07:34:25.866Z,100619.87
2023-04-04T07:37:28.500Z,100622.28
2023-04-04T07:40:31.821Z,100616.97
2023-04-04T07:43:34.393Z,100611.53
2023-04-04T07:46:36.836Z,100614.28
2023-04-04T07:49:39.455Z,100619.87
2023-04-04T07:52:42.231Z,100615.44
2023-04-04T07:55:44.913Z,100617.13
2023-04-04T07:58:47.573Z,100627.88
2023-04-04T08:01:50.256Z,100633.13
2023-04-04T08:04:53.246Z,100632.28
2023-04-04T08:07:55.952Z,100635.97
2023-04-04T08:10:58.486Z,100621.31
2023-04-04T08:14:00.851Z,100615.78
2023-04-04T08:17:03.678Z,100609.59
2023-04-04T08:20:06.637Z,100616.75
2023-04-04T08:23:09.781Z,100635.91
2023-04-04T08:26:12.377Z,100634.16
2023-04-04T08:29:14.876Z,100627.66
2023-04-04T08:32:17.653Z,100623.47
2023-04-04T08:35:20.287Z,100620.09
2023-04-04T08:38:22.829Z,100637.09
2023-04-04T08:41:27.327Z,100628.69
2023-04-04T08:44:34.683Z,100625.22
2023-04-04T08:47:39.030Z,100609.75
2023-04-04T08:50:47.161Z,100606.31
2023-04-04T08:53:51.297Z,100624.38
2023-04-04T08:56:53.596Z,100607.50
2023-04-04T08:59:57.386Z,100597.00
2023-04-04T09:03:10.229Z,100601.56
2023-04-04T09:06:13.481Z,100597.13
2023-04-04T09:09:17.214Z,100596.37
2023-04-04T09:12:22.368Z,100602.16
2023-04-04T09:15:25.104Z,100605.72
2023-04-04T09:18:28.489Z,100599.47
2023-04-04T09:21:33.869Z,100596.56
2023-04-04T09:24:41.768Z,100599.13
2023-04-04T09:27:45.478Z,100597.88
2023-04-04T09:30:49.321Z,100609.09
2023-04-04T09:33:51.821Z,100607.13
2023-04-04T09:36:54.582Z,100589.56
2023-04-04T09:39:57.792Z,100588.44
2023-04-04T09:43:01.133Z,100599.03
2023-04-04T09:46:04.176Z,100596.81
2023-04-04T09:49:13.142Z,100588.22
2023-04-04T09:52:23.305Z,100572.84
2023-04-04T09:55:34.273Z,100576.72
2023-04-04T09:58:44.068Z,100570.81
2023-04-04T10:01:54.997Z,100585.53
2023-04-04T10:05:06.192Z,100576.53
2023-04-04T10:08:22.256Z,100587.88
2023-04-04T10:11:33.647Z,100591.34
2023-04-04T10:14:36.558Z,100588.81
2023-04-04T10:17:41.031Z,100578.84
2023-04-04T10:20:45.702Z,100580.47
2023-04-04T10:23:49.046Z,100580.28
2023-04-04T10:26:51.420Z,100559.88
2023-04-04T10:29:54.111Z,100560.75
2023-04-04T10:33:12.661Z,100551.34
2023-04-04T10:36:21.333Z,100554.75
2023-04-04T10:39:35.461Z,100553.03
2023-04-04T10:42:40.285Z,100547.00
2023-04-04T10:45:44.187Z,100553.78
2023-04-04T10:48:48.846Z,100548.09
2023-04-04T10:51:56.481Z,100552.75
2023-04-04T10:55:04.367Z,100554.50
2023-04-04T10:58:08.428Z,100565.84
2023-04-04T11:01:11.122Z,100556.59
2023-04-04T11:04:22.079Z,100554.22
2023-04-04T11:07:29.409Z,100551.53
2023-04-04T11:10:32.628Z,100545.81
2023-04-04T11:13:35.899Z,100543.50
2023-04-04T11:16:51.570Z,100544.22
2023-04-04T11:20:01.208Z,100534.75
2023-04-04T11:23:04.793Z,100534.06
2023-04-04T11:26:08.494Z,100538.13
2023-04-04T11:29:19.631Z,100540.09
2023-04-04T11:32:52.992Z,100532.72
2023-04-04T11:36:08.132Z,100531.06
2023-04-04T11:39:31.414Z,100525.97
2023-04-04T11:42:40.672Z,100515.19
2023-04-04T11:45:48.049Z,100518.81
2023-04-04T11:48:50.548Z,100507.47
2023-04-04T11:51:53.192Z,100506.91
2023-04-04T11:54:55.574Z,100503.53
2023-04-04T11:58:06.288Z,100494.66
2023-04-04T12:01:08.982Z,100507.97
2023-04-04T12:04:12.088Z,100497.72
2023-04-04T12:07:17.796Z,100500.72
2023-04-04T12:10:22.210Z,100489.75
2023-04-04T12:13:31.191Z,100482.72
2023-04-04T12:16:35.874Z,100489.47
2023-04-04T12:19:39.996Z,100469.28
2023-04-04T12:22:45.953Z,100475.28
2023-04-04T12:25:53.707Z,100467.22
2023-04-04T12:29:00.820Z,100464.63
2023-04-04T12:32:04.765Z,100465.53
2023-04-04T12:35:07.479Z,100470.22
2023-04-04T12:38:16.625Z,100459.53
2023-04-04T12:41:19.572Z,100454.69
2023-04-04T12:44:39.751Z,100455.88
2023-04-04T12:47:55.881Z,100457.28
2023-04-04T12:50:59.672Z,100446.31
2023-04-04T12:54:04.846Z,100442.09
2023-04-04T12:57:08.006Z,100440.13
2023-04-04T13:00:13.914Z,100446.81
2023-04-04T13:03:17.267Z,100444.06
2023-04-04T13:06:19.881Z,100440.22
2023-04-04T13:09:23.653Z,100442.38
2023-04-04T13:12:26.508Z,100447.06
2023-04-04T13:15:48.109Z,100433.69
2023-04-04T13:18:50.788Z,100430.69
2023-04-04T13:21:54.184Z,100433.22
2023-04-04T13:24:56.791Z,100425.44
2023-04-04T13:27:58.996Z,100435.50
2023-04-04T13:31:06.334Z,100434.41
2023-04-04T13:34:08.570Z,100426.09
2023-04-04T13:37:11.155Z,100437.50
2023-04-04T13:40:13.421Z,100420.28
2023-04-04T13:43:16.141Z,100421.19
2023-04-04T13:46:18.339Z,100425.44
2023-04-04T13:49:20.958Z,100429.41
2023-04-04T13:52:23.754Z,100424.84
2023-04-04T13:55:27.200Z,100428.19
2023-04-04T13:58:29.385Z,100430.25
2023-04-04T14:01:32.075Z,100416.97
2023-04-04T14:04:34.969Z,100415.12
2023-04-04T14:07:38.313Z,100421.03
2023-04-04T14:10:40.828Z,100413.75
2023-04-04T14:13:42.972Z,100415.19
2023-04-04T14:16:45.503Z,100412.16
2023-04-04T14:19:47.968Z,100420.53
2023-04-04T14:22:50.637Z,100419.16
2023-04-04T14:25:52.929Z,100424.59
2023-04-04T14:28:55.856Z,100417.75
2023-04-04T14:31:58.217Z,100426.38
2023-04-04T14:35:01.076Z,100420.91
2023-04-04T14:38:03.251Z,100427.31
2023-04-04T14:41:05.776Z,100428.50
2023-04-04T14:44:08.555Z,100425.19
2023-04-04T14:47:11.277Z,100435.97
2023-04-04T14:50:13.421Z,100426.19
2023-04-04T14:53:16.077Z,100431.47
2023-04-04T14:56:18.298Z,100427.00
2023-04-04T14:59:20.977Z,100439.44
2023-04-04T15:02:23.245Z,100431.09
2023-04-04T15:05:26.514Z,100430.47
2023-04-04T15:08:28.794Z,100423.91
2023-04-04T15:11:31.802Z,100437.97
2023-04-04T15:14:33.946Z,100431.09
2023-04-04T15:17:36.647Z,100430.47
2023-04-04T15:20:40.232Z,100427.28
2023-04-04T15:23:42.929Z,100433.09
2023-04-04T15:26:45.181Z,100439.97
2023-04-04T15:29:47.699Z,100448.00
2023-04-04T15:32:51.327Z,100437.41
2023-04-04T15:35:56.084Z,100444.37
2023-04-04T15:38:58.205Z,100441.13
2023-04-04T15:42:01.264Z,100441.00
2023-04-04T15:45:04.426Z,100444.28
2023-04-04T15:48:07.011Z,100448.94
2023-04-04T15:51:09.201Z,100450.06
2023-04-04T15:54:12.452Z,100453.91
2023-04-04T15:57:14.792Z,100454.69
2023-04-04T16:00:17.660Z,100456.63
2023-04-04T16:03:20.562Z,100453.97
2023-04-04T16:06:24.924Z,100464.91
2023-04-04T16:09:27.368Z,100468.91
2023-04-04T16:12:29.579Z,100475.69
2023-04-04T16:15:32.638Z,100476.69
2023-04-04T16:18:37.033Z,100489.88
2023-04-04T16:21:40.078Z,100494.28
2023-04-04T16:24:42.241Z,100500.22
2023-04-04T16:27:44.739Z,100493.25
2023-04-04T16:30:46.870Z,100501.28
2023-04-04T16:33:49.325Z,100509.66
2023-04-04T16:36:51.604Z,100508.37
2023-04-04T16:39:54.155Z,100514.41
2023-04-04T16:42:56.436Z,100519.16
2023-04-04T16:45:58.906Z,100517.72
2023-04-04T16:49:01.058Z,100527.75
2023-04-04T16:52:03.592Z,100536.19
2023-04-04T16:55:07.407Z,100527.59
2023-04-04T16:58:10.020Z,100533.66
2023-04-04T17:01:16.639Z,100543.34
2023-04-04T17:04:19.172Z,100546.13
2023-04-04T17:07:21.335Z,100550.13
2023-04-04T17:10:23.780Z,100552.31
2023-04-04T17:13:25.956Z,100564.09
2023-04-04T17:16:28.490Z,100571.75
2023-04-04T17:19:34.873Z,100569.13
2023-04-04T17:22:38.425Z,100580.44
2023-04-04T17:25:40.551Z,100576.34
2023-04-04T17:28:43.517Z,100575.81
2023-04-04T17:31:50.162Z,100572.31
2023-04-04T17:34:52.827Z,100591.88
2023-04-04T17:37:55.158Z,100590.41
2023-04-04T17:41:00.659Z,100596.91
2023-04-04T17:44:02.881Z,100588.09
2023-04-04T17:47:05.940Z,100607.66
2023-04-04T17:50:08.623Z,100607.88
2023-04-04T17:53:11.169Z,100616.09
2023-04-04T17:56:13.393Z,100615.16
2023-04-04T17:59:17.403Z,100623.66
2023-04-04T18:02:19.885Z,100620.66
2023-04-04T18:05:22.898Z,100622.03
2023-04-04T18:08:25.217Z,100639.59
2023-04-04T18:11:27.993Z,100639.81
2023-04-04T18:14:30.141Z,100646.69
2023-04-04T18:17:33.433Z,100650.19
2023-04-04T18:20:36.533Z,100656.44
2023-04-04T18:23:39.007Z,100659.47
2023-04-04T18:26:41.203Z,100667.78
2023-04-04T18:29:43.752Z,100672.62
2023-04-04T18:32:46.069Z,100668.56
2023-04-04T18:35:48.659Z,100672.72
2023-04-04T18:38:51.153Z,100683.50
2023-04-04T18:41:53.793Z,100679.53
2023-04-04T18:44:56.200Z,100681.28
2023-04-04T18:47:58.692Z,100692.00
2023-04-04T18:51:01.660Z,100698.31
2023-04-04T18:54:04.755Z,100705.03
2023-04-04T18:57:07.158Z,100717.31
2023-04-04T19:00:10.162Z,100720.41
2023-04-04T19:03:13.334Z,100726.19
2023-04-04T19:06:16.085Z,100718.53
2023-04-04T19:09:20.556Z,100730.03
2023-04-04T19:12:23.153Z,100746.53
2023-04-04T19:15:25.444Z,100747.59
2023-04-04T19:18:28.517Z,100753.09
2023-04-04T19:21:31.544Z,100752.25
2023-04-04T19:24:34.094Z,100757.66
2023-04-04T19:27:36.292Z,100757.78
2023-04-04T19:30:38.671Z,100763.53
2023-04-04T19:33:41.143Z,100772.53
2023-04-04T19:36:43.665Z,100776.13
2023-04-04T19:39:46.013Z,100771.06
2023-04-04T19:42:48.491Z,100775.75
2023-04-04T19:45:52.417Z,100778.31
2023-04-04T19:48:56.144Z,100777.59
2023-04-04T19:52:00.391Z,100788.00
2023-04-04T19:55:08.292Z,100777.78
2023-04-04T19:58:19.632Z,100785.72
2023-04-04T20:01:23.673Z,100782.19
2023-04-04T20:04:26.343Z,100778.19
2023-04-04T20:07:29.034Z,100784.06
2023-04-04T20:10:41.043Z,100781.44
2023-04-04T20:13:45.006Z,100776.66
2023-04-04T20:16:47.415Z,100781.06
2023-04-04T20:19:49.502Z,100781.97
2023-04-04T20:22:51.977Z,100776.28
2023-04-04T20:25:54.870Z,100781.50
2023-04-04T20:28:57.449Z,100785.84
2023-04-04T20:32:04.668Z,100775.47
2023-04-04T20:35:07.734Z,100785.19
2023-04-04T20:38:10.154Z,100784.25
2023-04-04T20:41:17.312Z,100784.56
2023-04-04T20:44:21.675Z,100784.69
2023-04-04T20:47:37.476Z,100781.84
2023-04-04T20:50:43.895Z,100780.66
2023-04-04T20:53:46.523Z,100788.72
2023-04-04T20:56:53.681Z,100791.34
2023-04-04T20:59:56.176Z,100801.31
2023-04-04T21:03:09.141Z,100805.63
2023-04-04T21:06:14.248Z,100798.75
2023-04-04T21:09:16.557Z,100809.31
2023-04-04T21:12:18.989Z,100808.34
2023-04-04T21:15:30.650Z,100800.88
2023-04-04T21:18:33.977Z,100813.84
2023-04-04T21:21:37.140Z,100809.41
2023-04-04T21:24:40.255Z,100805.84
2023-04-04T21:27:42.524Z,100806.66
2023-04-04T21:30:46.545Z,100801.81
2023-04-04T21:33:49.729Z,100801.03
2023-04-04T21:36:57.463Z,100804.22
2023-04-04T21:40:00.588Z,100805.31
2023-04-04T21:43:03.121Z,100794.19
2023-04-04T21:46:05.434Z,100800.19
2023-04-04T21:49:09.066Z,100800.19
2023-04-04T21:52:11.743Z,100801.19
2023-04-04T21:55:14.186Z,100791.78
2023-04-04T21:58:16.474Z,100786.63
2023-04-04T22:01:18.999Z,100790.34
2023-04-04T22:04:21.542Z,100797.62
2023-04-04T22:07:23.778Z,100793.03
2023-04-04T22:10:26.884Z,100789.66
2023-04-04T22:13:33.444Z,100792.59
2023-04-04T22:16:39.077Z,100792.06
2023-04-04T22:19:42.897Z,100794.78
2023-04-04T22:22:45.925Z,100790.66
2023-04-04T22:25:48.164Z,100788.16
2023-04-04T22:28:50.767Z,100791.69
2023-04-04T22:31:52.984Z,100793.37
2023-04-04T22:34:55.545Z,100793.59
2023-04-04T22:38:00.961Z,100796.31
2023-04-04T22:41:03.414Z,100803.09
2023-04-04T22:44:05.755Z,100801.56
2023-04-04T22:47:08.221Z,100796.59
2023-04-04T22:50:10.408Z,100797.31
2023-04-04T22:53:12.950Z,100795.91
2023-04-04T22:56:15.398Z,100793.53
2023-04-04T22:59:17.812Z,100801.78
2023-04-04T23:02:19.977Z,100793.69
2023-04-04T23:05:22.768Z,100802.50
2023-04-04T23:08:24.929Z,100792.34
2023-04-04T23:11:29.457Z,100799.69
2023-04-04T23:14:31.827Z,100793.53
2023-04-04T23:17:35.731Z,100796.97
2023-04-04T23:20:38.418Z,100797.91
2023-04-04T23:23:40.808Z,100803.50
2023-04-04T23:26:42.934Z,100801.50
2023-04-04T23:29:45.412Z,100798.28
2023-04-04T23:32:47.727Z,100801.53
2023-04-04T23:35:50.541Z,100789.53
2023-04-04T23:38:53.200Z,100790.44
2023-04-04T23:41:56.242Z,100797.47
2023-04-04T23:45:00.954Z,100796.37
2023-04-04T23:48:03.670Z,100801.75
2023-04-04T23:51:05.948Z,100804.22
2023-04-04T23:54:11.031Z,100809.63
2023-04-04T23:57:13.227Z,100798.16
